Time;durP1;ratioP1;P1;durP2;ratioP2;P2;SDS_P1;SDS_P2;PMS_P1;PMS_P2;Temp;Humidity;BMP_temperature;BMP_pressure;BME280_temperature;BME280_humidity;BME280_pressure;Samples;Min_cycle;Max_cycle;Signal;HPM_P1;HPM_P2
2021/06/15 00:01:39;;;;;;;10.60;2.13;;;15.80;63.40;;;;;;5111133;28;20324;-79
2021/06/15 00:04:05;;;;;;;11.70;2.10;;;15.90;63.50;;;;;;5109828;27;20127;-79
2021/06/15 00:06:31;;;;;;;9.40;2.40;;;15.80;63.60;;;;;;5110091;28;20040;-81
2021/06/15 00:08:58;;;;;;;15.73;2.53;;;15.80;63.70;;;;;;5109962;28;20034;-81
2021/06/15 00:11:24;;;;;;;8.95;2.58;;;15.80;63.70;;;;;;5127298;27;20031;-81
2021/06/15 00:13:50;;;;;;;10.40;2.60;;;15.80;63.70;;;;;;5093109;28;20157;-81
2021/06/15 00:16:16;;;;;;;8.40;2.53;;;15.70;63.70;;;;;;5110966;28;20047;-80
2021/06/15 00:18:41;;;;;;;14.88;2.67;;;15.70;63.70;;;;;;5126910;27;20024;-81
2021/06/15 00:21:07;;;;;;;10.30;2.47;;;15.70;63.70;;;;;;5126765;27;20024;-80
2021/06/15 00:23:33;;;;;;;10.00;2.53;;;15.70;63.80;;;;;;5109602;28;20532;-80
2021/06/15 00:25:59;;;;;;;8.68;1.85;;;15.70;63.80;;;;;;5109312;28;20028;-81
2021/06/15 00:28:24;;;;;;;6.47;2.13;;;15.70;64.20;;;;;;5109305;27;20268;-80
2021/06/15 00:30:50;;;;;;;6.38;1.88;;;15.60;64.40;;;;;;5108503;28;20371;-79
2021/06/15 00:33:16;;;;;;;8.57;2.05;;;15.60;64.70;;;;;;5108763;28;20076;-79
2021/06/15 00:35:41;;;;;;;11.20;2.53;;;15.50;64.80;;;;;;5109239;28;20393;-81
2021/06/15 00:38:07;;;;;;;13.30;2.55;;;15.40;64.90;;;;;;5092363;28;20027;-81
2021/06/15 00:40:33;;;;;;;9.10;2.22;;;15.30;65.10;;;;;;5092000;28;20033;-80
2021/06/15 00:42:58;;;;;;;14.25;2.55;;;15.20;65.40;;;;;;5110319;28;20532;-81
2021/06/15 00:45:26;;;;;;;11.18;2.33;;;15.10;65.70;;;;;;5108918;27;20028;-80
2021/06/15 00:47:53;;;;;;;9.68;2.28;;;15.10;65.90;;;;;;5108954;28;20019;-77
2021/06/15 00:50:24;;;;;;;10.13;2.50;;;15.00;66.00;;;;;;5108875;28;20034;-79
2021/06/15 00:52:52;;;;;;;8.48;2.40;;;15.00;66.10;;;;;;5110833;28;20458;-80
2021/06/15 00:55:24;;;;;;;9.82;2.20;;;15.10;66.00;;;;;;5109016;28;20027;-80
2021/06/15 00:57:50;;;;;;;9.93;2.30;;;15.00;66.00;;;;;;5109046;28;20031;-82
2021/06/15 01:00:18;;;;;;;7.55;2.30;;;15.00;66.00;;;;;;5109623;28;20028;-81
2021/06/15 01:02:45;;;;;;;9.65;2.20;;;15.00;66.20;;;;;;5108287;28;20046;-80
2021/06/15 01:05:13;;;;;;;10.93;3.08;;;15.00;66.30;;;;;;5108610;28;20031;-79
2021/06/15 01:08:03;;;;;;;15.20;2.58;;;14.90;66.50;;;;;;5109794;28;20027;-80
2021/06/15 01:10:55;;;;;;;8.13;2.30;;;14.90;66.70;;;;;;5108645;28;20166;-79
2021/06/15 01:13:39;;;;;;;8.55;2.20;;;14.90;66.80;;;;;;5109839;28;20030;-79
2021/06/15 01:16:17;;;;;;;16.10;2.28;;;14.90;66.90;;;;;;5109462;28;20016;-81
2021/06/15 01:18:51;;;;;;;28.00;5.07;;;15.00;66.90;;;;;;5108917;28;20027;-79
2021/06/15 01:21:19;;;;;;;8.90;2.25;;;15.00;66.80;;;;;;5108516;28;20080;-81
2021/06/15 01:24:02;;;;;;;12.00;2.67;;;15.00;66.80;;;;;;5108548;28;20031;-80
2021/06/15 01:26:46;;;;;;;11.23;3.72;;;14.90;66.70;;;;;;5108510;28;20024;-80
2021/06/15 01:29:31;;;;;;;11.82;3.13;;;15.00;66.70;;;;;;5109632;28;20045;-80
2021/06/15 01:32:07;;;;;;;8.10;2.65;;;15.00;66.60;;;;;;5109780;28;20378;-82
2021/06/15 01:34:37;;;;;;;12.55;3.20;;;14.90;66.50;;;;;;5109711;28;20028;-78
2021/06/15 01:37:15;;;;;;;18.77;3.92;;;14.90;66.40;;;;;;5108419;28;20469;-79
2021/06/15 01:40:04;;;;;;;15.50;3.65;;;14.90;66.50;;;;;;5108602;28;20095;-78
2021/06/15 01:42:36;;;;;;;12.35;3.25;;;14.80;66.60;;;;;;5108461;28;20035;-81
2021/06/15 01:45:09;;;;;;;20.38;4.80;;;14.80;66.50;;;;;;5108402;28;20098;-79
2021/06/15 01:47:38;;;;;;;12.20;3.28;;;14.80;66.60;;;;;;5108563;28;20034;-81
2021/06/15 01:50:07;;;;;;;16.60;3.40;;;14.70;66.60;;;;;;5125304;27;20020;-79
2021/06/15 01:52:36;;;;;;;9.35;3.13;;;14.70;66.70;;;;;;5109056;28;20505;-81
2021/06/15 01:55:06;;;;;;;15.33;3.90;;;14.60;66.70;;;;;;5108491;28;20031;-80
2021/06/15 01:57:33;;;;;;;12.10;3.22;;;14.60;66.80;;;;;;5109802;28;20111;-79
2021/06/15 02:00:05;;;;;;;15.35;3.75;;;14.60;66.90;;;;;;5107851;28;20081;-80
2021/06/15 02:02:33;;;;;;;11.07;3.60;;;14.50;66.90;;;;;;5107151;28;20409;-81
2021/06/15 02:04:58;;;;;;;15.10;3.33;;;14.50;67.10;;;;;;5108019;28;20070;-80
2021/06/15 02:07:31;;;;;;;12.95;3.22;;;14.50;67.10;;;;;;5074197;28;20059;-80
2021/06/15 02:10:06;;;;;;;15.70;3.72;;;14.50;67.30;;;;;;5107968;28;20024;-81
2021/06/15 02:12:39;;;;;;;17.33;3.88;;;14.50;67.40;;;;;;5108357;28;20023;-79
2021/06/15 02:15:06;;;;;;;16.65;3.53;;;14.40;67.30;;;;;;5109268;28;20066;-80
2021/06/15 02:17:32;;;;;;;15.02;3.88;;;14.40;67.40;;;;;;5091442;28;20052;-79
2021/06/15 02:19:58;;;;;;;13.90;3.35;;;14.30;67.50;;;;;;5091040;28;20035;-81
2021/06/15 02:22:25;;;;;;;11.70;3.58;;;14.30;67.70;;;;;;5124834;28;20359;-80
2021/06/15 02:24:55;;;;;;;10.60;3.00;;;14.20;67.90;;;;;;5108959;28;20028;-79
2021/06/15 02:27:23;;;;;;;12.93;2.63;;;14.20;68.10;;;;;;5107277;28;20398;-81
2021/06/15 02:29:52;;;;;;;13.00;3.00;;;14.20;68.20;;;;;;5107416;28;20024;-81
2021/06/15 02:32:32;;;;;;;7.38;2.53;;;14.10;68.40;;;;;;5109224;28;20080;-79
2021/06/15 02:34:58;;;;;;;;;;;14.00;68.40;;;;;;5110157;28;20024;-80
2021/06/15 02:37:29;;;;;;;10.10;2.90;;;14.00;68.20;;;;;;5109180;28;19911;-78
2021/06/15 02:39:57;;;;;;;12.80;2.85;;;14.00;68.30;;;;;;5107488;28;20525;-78
2021/06/15 02:42:24;;;;;;;11.40;2.80;;;13.90;68.50;;;;;;5107324;28;20417;-79
2021/06/15 02:44:52;;;;;;;18.38;4.10;;;13.90;68.70;;;;;;5107313;28;20401;-80
2021/06/15 02:47:19;;;;;;;15.27;3.45;;;13.80;68.80;;;;;;5107001;28;20026;-81
2021/06/15 02:49:55;;;;;;;8.38;2.95;;;13.80;68.90;;;;;;5107778;28;20035;-81
2021/06/15 02:52:28;;;;;;;9.35;3.10;;;13.80;69.20;;;;;;5107669;28;20073;-79
2021/06/15 02:54:59;;;;;;;18.40;4.03;;;13.80;69.30;;;;;;5107893;28;20023;-78
2021/06/15 02:57:28;;;;;;;11.77;3.42;;;13.70;69.40;;;;;;5108799;28;20027;-79
2021/06/15 02:59:58;;;;;;;13.10;3.45;;;13.70;69.60;;;;;;5107732;28;20035;-79
2021/06/15 03:02:25;;;;;;;11.82;2.72;;;13.70;69.70;;;;;;5124756;27;20043;-81
2021/06/15 03:04:51;;;;;;;12.25;3.45;;;13.60;69.80;;;;;;5110723;28;20028;-79
2021/06/15 03:07:17;;;;;;;10.60;2.80;;;13.60;69.90;;;;;;5128851;27;20027;-79
2021/06/15 03:09:44;;;;;;;15.57;3.45;;;13.60;70.00;;;;;;5111562;28;20024;-81
2021/06/15 03:12:15;;;;;;;15.38;4.25;;;13.50;70.10;;;;;;5111609;28;20028;-79
2021/06/15 03:14:47;;;;;;;10.45;2.63;;;13.50;70.30;;;;;;5112750;28;20093;-78
2021/06/15 03:17:14;;;;;;;10.25;3.13;;;13.50;70.50;;;;;;5111475;28;20030;-81
2021/06/15 03:19:52;;;;;;;15.43;2.80;;;13.40;70.50;;;;;;5111256;28;20031;-79
2021/06/15 03:22:23;;;;;;;15.85;3.38;;;13.40;70.90;;;;;;5111675;28;20385;-81
2021/06/15 03:25:02;;;;;;;17.45;3.10;;;13.40;71.00;;;;;;5111542;28;20491;-80
2021/06/15 03:27:46;;;;;;;13.40;4.03;;;13.40;71.20;;;;;;5112780;28;20028;-80
2021/06/15 03:30:13;;;;;;;11.38;2.47;;;13.40;71.20;;;;;;5112413;28;20028;-79
2021/06/15 03:33:09;;;;;;;10.57;3.80;;;13.40;71.20;;;;;;5111299;28;20123;-81
2021/06/15 03:35:40;;;;;;;14.38;3.83;;;13.30;71.50;;;;;;5112416;28;20051;-81
2021/06/15 03:38:08;;;;;;;14.57;3.60;;;13.30;71.50;;;;;;5113290;28;20026;-78
2021/06/15 03:40:38;;;;;;;12.90;3.08;;;13.30;71.70;;;;;;5112892;28;20072;-80
2021/06/15 03:43:06;;;;;;;13.63;3.75;;;13.40;72.00;;;;;;5110269;28;20466;-80
2021/06/15 03:45:38;;;;;;;13.18;2.70;;;13.40;72.10;;;;;;5110031;28;20028;-79
2021/06/15 03:48:06;;;;;;;9.07;2.75;;;13.40;72.30;;;;;;5109950;28;20435;-80
2021/06/15 03:50:34;;;;;;;8.63;2.25;;;13.50;72.40;;;;;;5109421;28;20517;-81
2021/06/15 03:53:02;;;;;;;13.30;3.15;;;13.50;72.40;;;;;;5109597;28;20028;-80
2021/06/15 03:55:30;;;;;;;12.68;3.13;;;13.60;72.50;;;;;;5109796;28;20107;-82
2021/06/15 03:58:00;;;;;;;10.48;3.05;;;13.70;72.60;;;;;;5109475;28;20024;-80
2021/06/15 04:00:28;;;;;;;11.40;3.58;;;13.80;72.60;;;;;;5126901;27;20097;-79
2021/06/15 04:03:00;;;;;;;17.30;3.00;;;13.80;72.60;;;;;;5109526;28;20122;-80
2021/06/15 04:05:27;;;;;;;8.02;2.05;;;13.80;72.60;;;;;;5109853;28;20031;-80
2021/06/15 04:07:56;;;;;;;9.93;3.15;;;13.80;72.60;;;;;;5109626;28;20027;-79
2021/06/15 04:10:24;;;;;;;13.07;2.83;;;13.90;72.80;;;;;;5109806;28;20039;-79
2021/06/15 04:12:51;;;;;;;11.43;2.92;;;13.90;72.90;;;;;;5092757;28;20281;-79
2021/06/15 04:15:18;;;;;;;13.43;3.55;;;14.00;73.00;;;;;;5091867;28;20042;-81
2021/06/15 04:17:49;;;;;;;13.63;3.38;;;14.10;73.10;;;;;;5109925;28;20023;-79
2021/06/15 04:20:19;;;;;;;15.07;3.42;;;14.20;73.10;;;;;;5110756;28;20031;-82
2021/06/15 04:22:46;;;;;;;11.05;2.80;;;14.20;72.90;;;;;;5109271;28;20108;-81
2021/06/15 04:25:17;;;;;;;13.80;3.50;;;14.20;72.80;;;;;;5110803;28;20023;-79
2021/06/15 04:27:46;;;;;;;16.20;3.05;;;14.20;72.90;;;;;;5110840;28;20061;-79
2021/06/15 04:30:14;;;;;;;15.88;3.45;;;14.20;73.10;;;;;;5092953;28;20047;-81
2021/06/15 04:32:51;;;;;;;8.07;2.28;;;14.30;73.20;;;;;;5109713;28;20098;-79
2021/06/15 04:35:28;;;;;;;16.00;3.17;;;14.30;73.30;;;;;;5108994;28;20020;-80
2021/06/15 04:37:57;;;;;;;12.38;2.92;;;14.40;73.30;;;;;;5110552;28;20031;-78
2021/06/15 04:40:29;;;;;;;12.70;3.17;;;14.40;73.20;;;;;;5110487;28;20015;-78
2021/06/15 04:42:54;;;;;;;15.13;2.70;;;14.50;73.20;;;;;;5109340;28;20032;-78
2021/06/15 04:45:25;;;;;;;18.80;4.25;;;14.60;73.20;;;;;;5109908;28;20030;-80
2021/06/15 04:48:03;;;;;;;13.18;2.65;;;14.70;73.10;;;;;;5111812;28;20020;-79
2021/06/15 04:50:30;;;;;;;12.45;2.78;;;14.70;73.00;;;;;;5110220;28;20494;-78
2021/06/15 04:52:59;;;;;;;10.25;2.45;;;14.70;73.00;;;;;;5110515;28;20486;-78
2021/06/15 04:55:28;;;;;;;15.93;3.30;;;14.80;73.10;;;;;;5109361;28;20032;-80
2021/06/15 04:57:56;;;;;;;11.93;3.25;;;14.90;73.10;;;;;;5109352;28;20318;-78
2021/06/15 05:00:24;;;;;;;13.65;2.30;;;14.90;73.00;;;;;;5110653;28;20028;-78
2021/06/15 05:02:51;;;;;;;12.77;2.42;;;15.00;72.80;;;;;;5109236;28;20063;-80
2021/06/15 05:05:17;;;;;;;12.32;2.85;;;15.10;72.70;;;;;;5109595;28;20470;-79
2021/06/15 05:07:43;;;;;;;9.95;2.65;;;15.20;72.60;;;;;;5109799;28;20028;-79
2021/06/15 05:10:11;;;;;;;11.82;2.50;;;15.20;72.60;;;;;;5125194;27;20053;-80
2021/06/15 05:12:42;;;;;;;13.10;2.92;;;15.30;72.50;;;;;;5091562;28;20477;-78
2021/06/15 05:15:09;;;;;;;11.18;2.60;;;15.40;72.40;;;;;;5110204;28;20469;-80
2021/06/15 05:17:36;;;;;;;11.65;3.33;;;15.40;72.20;;;;;;5111140;28;20083;-78
2021/06/15 05:20:05;;;;;;;17.02;3.17;;;15.50;72.10;;;;;;5125657;27;20070;-80
2021/06/15 05:22:38;;;;;;;12.57;2.42;;;15.50;71.90;;;;;;5108758;28;20019;-78
2021/06/15 05:25:04;;;;;;;12.45;2.60;;;15.60;72.00;;;;;;5111057;28;20048;-76
2021/06/15 05:27:32;;;;;;;19.42;3.50;;;15.60;71.90;;;;;;5107432;28;20043;-78
2021/06/15 05:30:00;;;;;;;11.68;3.38;;;15.60;71.80;;;;;;5109172;28;20035;-77
2021/06/15 05:32:30;;;;;;;19.45;3.05;;;15.60;71.80;;;;;;5108469;28;20488;-79
2021/06/15 05:34:56;;;;;;;14.82;2.85;;;15.70;71.80;;;;;;5108520;28;20019;-77
2021/06/15 05:37:23;;;;;;;18.83;3.83;;;15.80;71.80;;;;;;5108700;28;20027;-79
2021/06/15 05:39:49;;;;;;;17.15;2.28;;;15.90;71.60;;;;;;5108296;28;20387;-80
2021/06/15 05:42:15;;;;;;;17.40;2.25;;;16.00;71.40;;;;;;5124816;27;20123;-80
2021/06/15 05:44:41;;;;;;;12.95;3.45;;;16.10;71.30;;;;;;5107089;28;20034;-79
2021/06/15 05:47:07;;;;;;;8.35;2.35;;;16.10;71.00;;;;;;5107494;27;20032;-77
2021/06/15 05:49:33;;;;;;;11.65;2.75;;;16.10;70.80;;;;;;5108507;28;20420;-80
2021/06/15 05:52:01;;;;;;;13.20;2.95;;;16.20;70.80;;;;;;5107278;28;20028;-79
2021/06/15 05:54:28;;;;;;;15.80;2.35;;;16.20;70.90;;;;;;5108414;28;20111;-80
2021/06/15 05:56:53;;;;;;;11.32;2.88;;;16.10;70.80;;;;;;5107058;28;20023;-80
2021/06/15 05:59:19;;;;;;;12.25;2.85;;;16.10;70.80;;;;;;5108457;28;20028;-80
2021/06/15 06:01:45;;;;;;;11.43;3.05;;;16.20;70.60;;;;;;5108432;28;20540;-80
2021/06/15 06:04:14;;;;;;;12.88;2.63;;;16.40;70.30;;;;;;5107069;28;20036;-78
2021/06/15 06:09:24;;;;;;;16.95;3.63;;;16.60;69.70;;;;;;5107823;28;20454;-80
2021/06/15 06:11:49;;;;;;;16.40;3.30;;;16.70;69.50;;;;;;5124923;27;20132;-79
2021/06/15 06:14:16;;;;;;;29.20;5.20;;;16.80;69.30;;;;;;5109397;28;20024;-77
2021/06/15 06:16:42;;;;;;;14.75;2.78;;;17.00;69.90;;;;;;5108934;28;20438;-79
2021/06/15 06:19:12;;;;;;;11.55;2.40;;;17.10;69.10;;;;;;5107063;28;20024;-77
2021/06/15 06:21:38;;;;;;;10.60;2.70;;;17.30;68.70;;;;;;5124696;27;20489;-78
2021/06/15 06:24:06;;;;;;;11.05;2.50;;;17.50;68.20;;;;;;5090445;28;20398;-76
2021/06/15 06:26:33;;;;;;;8.00;2.10;;;17.40;67.50;;;;;;5107377;28;20026;-78
2021/06/15 06:28:59;;;;;;;10.80;2.08;;;17.40;67.50;;;;;;5089762;28;20059;-77
2021/06/15 06:31:25;;;;;;;14.15;2.40;;;17.30;67.40;;;;;;5106845;28;20032;-77
2021/06/15 06:33:50;;;;;;;11.05;2.25;;;17.30;67.60;;;;;;5108375;28;20039;-78
2021/06/15 06:36:17;;;;;;;7.57;2.22;;;17.40;67.60;;;;;;5090105;28;20024;-77
2021/06/15 06:38:49;;;;;;;11.68;2.22;;;17.40;67.60;;;;;;5108525;27;20030;-80
2021/06/15 06:41:18;;;;;;;9.48;2.58;;;17.60;67.20;;;;;;5112086;28;20582;-78
2021/06/15 06:43:44;;;;;;;12.70;2.45;;;17.60;66.80;;;;;;5113916;28;20032;-79
2021/06/15 06:46:10;;;;;;;11.00;2.78;;;17.60;66.60;;;;;;5112613;28;20092;-76
2021/06/15 06:48:36;;;;;;;10.02;2.63;;;18.50;67.90;;;;;;5113284;28;20026;-79
2021/06/15 06:51:02;;;;;;;14.27;2.75;;;20.60;66.70;;;;;;5111700;28;20027;-80
2021/06/15 06:53:28;;;;;;;9.52;2.38;;;22.70;64.00;;;;;;5146135;27;20020;-80
2021/06/15 06:55:53;;;;;;;13.65;3.05;;;24.40;61.20;;;;;;5128609;27;20055;-78
2021/06/15 06:58:19;;;;;;;11.70;2.13;;;26.00;58.60;;;;;;5111270;28;20069;-80
2021/06/15 07:00:45;;;;;;;12.10;2.60;;;27.60;56.20;;;;;;5110459;28;20504;-80
2021/06/15 07:03:11;;;;;;;9.52;2.10;;;29.00;54.00;;;;;;5110519;28;20402;-78
2021/06/15 07:05:36;;;;;;;7.40;2.40;;;29.00;51.00;;;;;;5093236;28;20020;-79
2021/06/15 07:08:02;;;;;;;12.13;2.60;;;28.10;50.30;;;;;;5110101;28;20730;-79
2021/06/15 07:10:28;;;;;;;7.97;1.70;;;27.10;50.80;;;;;;5127608;27;20019;-80
2021/06/15 07:12:53;;;;;;;10.63;2.53;;;27.00;51.40;;;;;;5109712;28;20046;-79
2021/06/15 07:15:19;;;;;;;9.10;1.83;;;27.70;51.20;;;;;;5092688;28;20362;-78
2021/06/15 07:17:45;;;;;;;9.68;2.22;;;28.40;50.40;;;;;;5092597;28;20119;-78
2021/06/15 07:20:11;;;;;;;16.30;2.95;;;29.40;49.80;;;;;;5092458;28;20023;-78
2021/06/15 07:22:37;;;;;;;9.43;2.95;;;30.50;48.80;;;;;;5109716;28;20102;-79
2021/06/15 07:25:04;;;;;;;9.40;2.33;;;31.40;47.90;;;;;;5109285;28;20115;-80
2021/06/15 07:27:30;;;;;;;8.38;2.15;;;31.70;46.30;;;;;;5126459;27;20027;-78
2021/06/15 07:29:56;;;;;;;11.00;2.30;;;31.10;45.10;;;;;;5110670;27;20121;-79
2021/06/15 07:32:22;;;;;;;6.03;1.70;;;30.10;45.00;;;;;;5143763;27;20375;-78
2021/06/15 07:34:47;;;;;;;5.82;1.90;;;29.40;45.60;;;;;;5126436;27;20027;-81
2021/06/15 07:37:14;;;;;;;9.48;2.28;;;29.00;45.70;;;;;;5109414;28;20447;-77
2021/06/15 07:39:40;;;;;;;7.93;1.98;;;28.20;45.90;;;;;;5109345;28;20106;-78
2021/06/15 07:42:07;;;;;;;12.45;2.20;;;27.60;46.40;;;;;;5143795;27;20115;-79
2021/06/15 07:44:33;;;;;;;14.90;2.40;;;27.30;46.70;;;;;;5110495;28;20028;-78
2021/06/15 07:46:59;;;;;;;8.35;2.20;;;27.20;46.90;;;;;;5125882;27;20062;-79
2021/06/15 07:49:25;;;;;;;7.55;2.17;;;27.20;46.80;;;;;;5108578;27;20493;-78
2021/06/15 07:51:51;;;;;;;11.13;2.90;;;27.10;46.90;;;;;;5107781;27;20034;-80
2021/06/15 07:54:17;;;;;;;5.63;1.88;;;27.00;47.10;;;;;;5108415;28;20031;-80
2021/06/15 07:56:42;;;;;;;7.03;2.35;;;26.80;46.90;;;;;;5107975;28;20036;-77
2021/06/15 07:59:08;;;;;;;10.32;2.75;;;26.70;46.90;;;;;;5108020;28;20023;-79
2021/06/15 08:01:34;;;;;;;7.32;2.17;;;26.40;47.10;;;;;;5091424;28;20546;-79
2021/06/15 08:03:59;;;;;;;7.10;2.08;;;26.20;47.40;;;;;;5110128;28;20069;-80
2021/06/15 08:06:25;;;;;;;7.10;1.88;;;25.90;47.60;;;;;;5108226;28;20024;-78
2021/06/15 08:08:51;;;;;;;10.15;1.63;;;25.70;47.90;;;;;;5108533;28;20049;-79
2021/06/15 08:11:17;;;;;;;10.57;2.30;;;25.40;48.30;;;;;;5116976;27;20027;-79
2021/06/15 08:13:43;;;;;;;9.23;2.63;;;25.40;49.00;;;;;;5108138;28;20540;-78
2021/06/15 08:16:09;;;;;;;7.70;1.95;;;25.60;49.10;;;;;;5108324;28;20511;-79
2021/06/15 08:18:35;;;;;;;13.95;3.17;;;25.90;48.90;;;;;;5116557;27;20028;-78
2021/06/15 08:21:01;;;;;;;8.25;2.00;;;26.20;48.80;;;;;;5107777;28;20434;-80
2021/06/15 08:23:28;;;;;;;8.73;2.50;;;26.70;48.60;;;;;;5091220;28;20112;-78
2021/06/15 08:25:55;;;;;;;7.30;1.95;;;27.10;48.10;;;;;;5108035;28;20023;-79
2021/06/15 08:28:21;;;;;;;15.70;2.10;;;27.20;47.80;;;;;;5090946;28;20024;-78
2021/06/15 08:30:47;;;;;;;11.50;2.35;;;27.00;48.00;;;;;;5108310;28;20448;-78
2021/06/15 08:33:12;;;;;;;10.75;2.50;;;26.80;47.40;;;;;;5091187;28;20039;-79
2021/06/15 08:35:39;;;;;;;11.32;2.28;;;26.60;47.00;;;;;;5074235;28;20538;-78
2021/06/15 08:38:05;;;;;;;9.55;2.95;;;26.50;46.70;;;;;;5108272;28;20389;-79
2021/06/15 08:40:31;;;;;;;12.90;2.63;;;26.50;46.60;;;;;;5125037;27;20354;-79
2021/06/15 08:42:57;;;;;;;12.23;1.70;;;26.40;46.40;;;;;;5124895;27;20112;-79
2021/06/15 08:45:24;;;;;;;6.65;1.50;;;26.20;46.30;;;;;;5090880;28;20042;-78
2021/06/15 08:47:52;;;;;;;7.80;1.90;;;25.90;46.10;;;;;;5107937;28;20036;-79
2021/06/15 08:50:26;;;;;;;8.00;2.38;;;25.60;45.70;;;;;;5108234;28;20367;-79
2021/06/15 08:52:52;;;;;;;7.53;1.80;;;25.20;46.00;;;;;;5107643;28;20072;-78
2021/06/15 08:55:19;;;;;;;7.38;1.20;;;25.10;46.20;;;;;;5107761;28;20031;-79
2021/06/15 08:58:10;;;;;;;9.43;2.60;;;24.90;46.30;;;;;;5074838;28;20040;-78
2021/06/15 09:00:35;;;;;;;9.13;2.17;;;24.90;46.50;;;;;;5093739;28;20375;-78
2021/06/15 09:03:01;;;;;;;7.63;2.10;;;25.00;46.70;;;;;;5106554;28;20051;-79
2021/06/15 09:05:27;;;;;;;10.15;2.20;;;25.10;46.90;;;;;;5124336;27;20034;-79
2021/06/15 09:08:04;;;;;;;11.88;2.70;;;25.10;46.70;;;;;;5107573;28;20382;-79
2021/06/15 09:10:31;;;;;;;4.88;1.92;;;25.10;46.70;;;;;;5090708;28;20092;-77
2021/06/15 09:12:58;;;;;;;8.82;1.92;;;25.10;46.90;;;;;;5106954;28;20080;-78
2021/06/15 09:15:25;;;;;;;16.35;3.17;;;25.10;47.00;;;;;;5091366;28;20028;-80
2021/06/15 09:17:50;;;;;;;13.30;2.15;;;25.20;47.10;;;;;;5111247;28;20505;-79
2021/06/15 09:20:30;;;;;;;9.40;2.90;;;25.40;47.10;;;;;;5092915;28;20084;-71
2021/06/15 09:23:06;;;;;;;9.00;2.13;;;25.60;47.10;;;;;;5109999;28;20471;-81
2021/06/15 09:25:32;;;;;;;7.43;2.22;;;25.60;47.00;;;;;;5109801;28;20123;-81
2021/06/15 09:28:00;;;;;;;9.73;2.58;;;25.60;47.20;;;;;;5093168;28;20456;-80
2021/06/15 09:30:29;;;;;;;8.20;2.45;;;25.60;47.10;;;;;;5110265;28;20054;-77
2021/06/15 09:32:55;;;;;;;13.95;4.63;;;25.40;47.30;;;;;;5109242;28;20035;-79
2021/06/15 09:35:22;;;;;;;16.13;2.42;;;25.40;47.70;;;;;;5092964;28;20032;-78
2021/06/15 09:37:56;;;;;;;9.45;2.20;;;25.60;47.90;;;;;;5109565;28;20023;-80
2021/06/15 09:40:28;;;;;;;11.57;1.92;;;25.70;47.50;;;;;;5111304;28;20019;-79
2021/06/15 09:43:12;;;;;;;7.65;1.85;;;25.60;47.80;;;;;;5111109;28;20107;-79
2021/06/15 09:45:45;;;;;;;10.60;3.10;;;25.60;47.90;;;;;;5109604;28;20731;-79
2021/06/15 09:48:34;;;;;;;9.27;2.13;;;25.60;47.80;;;;;;5094023;28;20028;-80
2021/06/15 09:51:04;;;;;;;13.65;2.40;;;25.40;47.60;;;;;;5110763;28;20030;-80
2021/06/15 09:53:35;;;;;;;11.25;4.00;;;25.10;47.50;;;;;;5109192;28;20063;-79
2021/06/15 09:56:07;;;;;;;7.45;1.85;;;24.80;47.90;;;;;;5110201;28;20028;-79
2021/06/15 09:59:02;;;;;;;6.15;1.27;;;24.60;48.20;;;;;;5126786;27;20062;-69
2021/06/15 10:01:34;;;;;;;11.23;1.90;;;24.30;48.50;;;;;;5093337;28;20131;-79
2021/06/15 10:04:23;;;;;;;6.50;1.90;;;24.10;48.90;;;;;;5109685;28;20378;-80
2021/06/15 10:06:53;;;;;;;9.73;2.67;;;23.90;49.30;;;;;;5109815;28;20059;-81
2021/06/15 10:09:27;;;;;;;14.68;4.80;;;23.90;49.80;;;;;;5109868;28;20034;-80
2021/06/15 10:11:58;;;;;;;7.43;2.15;;;24.10;49.80;;;;;;5111562;28;20107;-80
2021/06/15 10:14:26;;;;;;;9.07;2.65;;;24.60;49.80;;;;;;5108554;28;20019;-78
2021/06/15 10:16:54;;;;;;;7.53;1.80;;;25.00;49.40;;;;;;5108613;28;20058;-76
2021/06/15 10:19:20;;;;;;;6.97;1.80;;;25.40;48.90;;;;;;5110915;28;20031;-81
2021/06/15 10:21:46;;;;;;;7.28;2.60;;;25.90;48.60;;;;;;5092561;28;20027;-83
2021/06/15 10:24:14;;;;;;;17.05;3.83;;;26.60;48.10;;;;;;5110782;28;20028;-80
2021/06/15 10:26:40;;;;;;;8.77;3.10;;;27.40;47.50;;;;;;5110076;28;20023;-80
2021/06/15 10:29:11;;;;;;;7.97;1.92;;;28.00;46.70;;;;;;5090005;28;20024;-80
2021/06/15 10:31:40;;;;;;;7.57;1.58;;;28.50;45.70;;;;;;5081220;28;20377;-80
2021/06/15 10:34:06;;;;;;;4.73;1.77;;;28.70;44.60;;;;;;5110673;28;20117;-80
2021/06/15 10:36:44;;;;;;;5.70;1.90;;;28.90;44.80;;;;;;5089189;28;20032;-79
2021/06/15 10:39:39;;;;;;;7.40;2.00;;;29.30;44.70;;;;;;5106782;28;20023;-82
2021/06/15 10:42:12;;;;;;;6.03;2.08;;;29.70;44.40;;;;;;5109171;28;20034;-80
2021/06/15 10:44:38;;;;;;;6.47;1.60;;;30.50;44.00;;;;;;5097024;28;20041;-81
2021/06/15 10:47:13;;;;;;;7.15;2.03;;;31.20;43.70;;;;;;5110029;28;20035;-80
2021/06/15 10:50:07;;;;;;;6.40;2.13;;;31.20;42.70;;;;;;5110798;28;20032;-80
2021/06/15 10:53:01;;;;;;;6.05;2.20;;;30.70;42.40;;;;;;5108237;28;20119;-83
2021/06/15 10:55:50;;;;;;;5.90;1.80;;;30.10;42.10;;;;;;5109631;28;20036;-80
2021/06/15 10:58:17;;;;;;;8.47;3.47;;;29.60;42.10;;;;;;5107625;28;20069;-79
2021/06/15 11:00:45;;;;;;;9.63;2.58;;;29.30;42.30;;;;;;5107978;28;20082;-79
2021/06/15 11:03:17;;;;;;;8.52;2.22;;;28.90;42.30;;;;;;5109502;28;20052;-77
2021/06/15 11:05:59;;;;;;;6.20;1.48;;;29.10;43.10;;;;;;5107672;28;20035;-80
2021/06/15 11:08:30;;;;;;;6.30;1.80;;;29.30;42.90;;;;;;5107849;28;20045;-78
2021/06/15 11:11:18;;;;;;;6.78;2.47;;;29.30;42.90;;;;;;5107440;28;20462;-82
2021/06/15 11:13:46;;;;;;;7.28;1.90;;;29.10;43.00;;;;;;5108981;28;20063;-81
2021/06/15 11:16:36;;;;;;;6.15;2.75;;;28.70;42.90;;;;;;5108722;28;20022;-81
2021/06/15 11:19:11;;;;;;;9.65;2.90;;;28.20;43.40;;;;;;5109549;28;20360;-80
2021/06/15 11:21:53;;;;;;;7.55;1.95;;;28.00;43.90;;;;;;5108283;28;20027;-75
2021/06/15 11:24:23;;;;;;;9.25;1.75;;;27.80;44.20;;;;;;5108194;28;20019;-77
2021/06/15 11:26:51;;;;;;;9.93;1.92;;;27.80;44.30;;;;;;5112389;28;20027;-79
2021/06/15 11:29:36;;;;;;;10.80;3.10;;;28.20;44.80;;;;;;5111987;28;20030;-79
2021/06/15 11:32:24;;;;;;;5.78;1.73;;;29.10;44.60;;;;;;5112707;28;20433;-79
2021/06/15 11:34:53;;;;;;;10.10;3.80;;;30.00;43.70;;;;;;5113304;28;20023;-78
2021/06/15 11:37:21;;;;;;;5.25;2.10;;;30.10;43.30;;;;;;5111863;28;20023;-80
2021/06/15 11:39:47;;;;;;;10.65;1.90;;;29.80;43.00;;;;;;5113863;27;20023;-77
2021/06/15 11:42:25;;;;;;;4.88;1.95;;;29.50;43.30;;;;;;5113713;28;20028;-78
2021/06/15 11:45:01;;;;;;;10.20;1.90;;;29.30;43.50;;;;;;5113110;27;20024;-77
2021/06/15 11:47:31;;;;;;;5.05;1.60;;;28.80;44.00;;;;;;5114299;28;20042;-80
2021/06/15 11:50:05;;;;;;;9.10;2.15;;;28.70;44.60;;;;;;5113476;28;20019;-81
2021/06/15 11:52:32;;;;;;;9.93;1.95;;;29.00;44.80;;;;;;5113563;28;20031;-80
2021/06/15 11:54:58;;;;;;;18.65;3.53;;;29.20;44.70;;;;;;5111480;28;20039;-79
2021/06/15 11:57:25;;;;;;;5.97;2.03;;;29.20;44.70;;;;;;5094395;28;20496;-82
2021/06/15 11:59:51;;;;;;;8.40;1.60;;;29.10;44.70;;;;;;5111831;28;20076;-78
2021/06/15 12:02:27;;;;;;;8.00;1.75;;;29.10;44.90;;;;;;5122130;27;20047;-80
2021/06/15 12:05:19;;;;;;;6.72;1.65;;;29.10;45.20;;;;;;5106233;28;20023;-81
2021/06/15 12:07:53;;;;;;;7.90;1.83;;;29.10;44.20;;;;;;5090751;28;20063;-79
2021/06/15 12:10:21;;;;;;;10.20;1.88;;;29.60;44.20;;;;;;5113274;27;20015;-80
2021/06/15 12:12:55;;;;;;;7.60;1.80;;;30.20;43.70;;;;;;5112915;28;20084;-79
2021/06/15 12:15:31;;;;;;;8.75;1.95;;;30.40;43.20;;;;;;5100947;28;20023;-81
2021/06/15 12:17:57;;;;;;;4.47;1.40;;;30.80;42.80;;;;;;5111618;28;20039;-79
2021/06/15 12:20:26;;;;;;;5.00;1.52;;;31.00;42.50;;;;;;5111755;28;20369;-80
2021/06/15 12:22:52;;;;;;;6.87;1.30;;;31.00;42.30;;;;;;5110488;28;20024;-80
2021/06/15 12:25:18;;;;;;;6.25;1.83;;;30.90;41.80;;;;;;5110673;28;20099;-79
2021/06/15 12:27:45;;;;;;;9.10;1.60;;;30.70;42.00;;;;;;5111157;28;20539;-79
2021/06/15 12:30:12;;;;;;;7.88;1.63;;;30.70;42.40;;;;;;5111441;28;20373;-81
2021/06/15 12:32:48;;;;;;;10.80;1.70;;;30.90;42.50;;;;;;5094054;28;20358;-79
2021/06/15 12:35:16;;;;;;;6.75;1.77;;;31.50;42.20;;;;;;5093636;28;20035;-80
2021/06/15 12:37:42;;;;;;;5.80;1.77;;;31.80;41.60;;;;;;5091092;28;20032;-80
2021/06/15 12:40:08;;;;;;;7.65;1.55;;;31.90;41.60;;;;;;5101803;28;20023;-77
2021/06/15 12:42:34;;;;;;;8.75;1.48;;;32.00;41.40;;;;;;5110594;28;20027;-81
2021/06/15 12:45:01;;;;;;;7.10;1.83;;;32.50;41.50;;;;;;5093866;28;20031;-80
2021/06/15 12:47:29;;;;;;;7.07;1.45;;;32.90;41.00;;;;;;5110543;28;20027;-80
2021/06/15 12:49:58;;;;;;;6.28;1.83;;;33.00;40.30;;;;;;5112336;28;20038;-80
2021/06/15 12:52:35;;;;;;;7.95;2.42;;;33.00;40.40;;;;;;5093350;28;20030;-79
2021/06/15 12:55:09;;;;;;;5.22;1.27;;;32.80;40.20;;;;;;5111790;28;20466;-79
2021/06/15 12:57:34;;;;;;;10.77;2.05;;;32.70;39.70;;;;;;5111637;28;20030;-79